<?xml version="1.0" encoding="UTF-8" standalone="no" ?>
<gpx xmlns="http://www.topografix.com/GPX/1/1" creator="MapSource 6.11.6" version="1.1" xmlns:xsi="http://www.w3.org/2001/XMLSchema-instance" xsi:schemaLocation="http://www.topografix.com/GPX/1/1 http://www.topografix.com/GPX/1/1/gpx.xsd">

  <metadata>
    <link href="http://www.garmin.com">
      <text>Garmin International</text>
    </link>
    <time>2008-09-15T18:52:36Z</time>
    <bounds maxlat="50.671086" maxlon="6.480299" minlat="50.654790" minlon="6.431289"/>
  </metadata>

  <trk>
    <name>Scheidbaum-Blens</name>
    <extensions>
      <gpxx:TrackExtension xmlns:gpxx="http://www.garmin.com/xmlschemas/GpxExtensions/v3" xmlns:xsi="http://www.w3.org/2001/XMLSchema-instance" xsi:schemaLocation="http://www.garmin.com/xmlschemas/GpxExtensions/v3 http://www.garmin.com/xmlschemas/GpxExtensions/v3/GpxExtensionsv3.xsd">
        <gpxx:DisplayColor>White</gpxx:DisplayColor>
      </gpxx:TrackExtension>
    </extensions>
    <trkseg>
      <trkpt lat="50.657209" lon="6.431289">
        <ele>394.758545</ele>
        <time>2008-07-22T21:44:50Z</time>
      </trkpt>
      <trkpt lat="50.657187" lon="6.431922">
        <ele>392.835938</ele>
        <time>2008-07-22T21:45:20Z</time>
      </trkpt>
      <trkpt lat="50.657157" lon="6.432071">
        <ele>392.355347</ele>
        <time>2008-07-22T21:45:27Z</time>
      </trkpt>
      <trkpt lat="50.657099" lon="6.432208">
        <ele>391.874512</ele>
        <time>2008-07-22T21:45:35Z</time>
      </trkpt>
      <trkpt lat="50.656773" lon="6.432768">
        <ele>389.471191</ele>
        <time>2008-07-22T21:46:10Z</time>
      </trkpt>
      <trkpt lat="50.656483" lon="6.433318">
        <ele>389.471191</ele>
        <time>2008-07-22T21:46:44Z</time>
      </trkpt>
      <trkpt lat="50.656145" lon="6.433898">
        <ele>389.471191</ele>
        <time>2008-07-22T21:47:20Z</time>
      </trkpt>
      <trkpt lat="50.656047" lon="6.434296">
        <ele>388.510010</ele>
        <time>2008-07-22T21:47:40Z</time>
      </trkpt>
      <trkpt lat="50.656009" lon="6.434751">
        <ele>386.587402</ele>
        <time>2008-07-22T21:48:02Z</time>
      </trkpt>
      <trkpt lat="50.656026" lon="6.434946">
        <ele>387.067993</ele>
        <time>2008-07-22T21:48:11Z</time>
      </trkpt>
      <trkpt lat="50.656203" lon="6.435066">
        <ele>388.029297</ele>
        <time>2008-07-22T21:48:25Z</time>
      </trkpt>
      <trkpt lat="50.656276" lon="6.435210">
        <ele>387.548584</ele>
        <time>2008-07-22T21:48:34Z</time>
      </trkpt>
      <trkpt lat="50.656312" lon="6.435369">
        <ele>387.067993</ele>
        <time>2008-07-22T21:48:42Z</time>
      </trkpt>
      <trkpt lat="50.656429" lon="6.436102">
        <ele>385.145386</ele>
        <time>2008-07-22T21:49:17Z</time>
      </trkpt>
      <trkpt lat="50.656490" lon="6.436824">
        <ele>384.664795</ele>
        <time>2008-07-22T21:49:51Z</time>
      </trkpt>
      <trkpt lat="50.656486" lon="6.437416">
        <ele>382.261353</ele>
        <time>2008-07-22T21:50:19Z</time>
      </trkpt>
      <trkpt lat="50.656550" lon="6.437971">
        <ele>382.742065</ele>
        <time>2008-07-22T21:50:45Z</time>
      </trkpt>
      <trkpt lat="50.656746" lon="6.438719">
        <ele>383.222656</ele>
        <time>2008-07-22T21:51:23Z</time>
      </trkpt>
      <trkpt lat="50.656846" lon="6.438983">
        <ele>383.222656</ele>
        <time>2008-07-22T21:51:37Z</time>
      </trkpt>
      <trkpt lat="50.656994" lon="6.439511">
        <ele>382.261353</ele>
        <time>2008-07-22T21:52:04Z</time>
      </trkpt>
      <trkpt lat="50.657079" lon="6.440065">
        <ele>379.377441</ele>
        <time>2008-07-22T21:52:31Z</time>
      </trkpt>
      <trkpt lat="50.657103" lon="6.440262">
        <ele>379.858032</ele>
        <time>2008-07-22T21:52:40Z</time>
      </trkpt>
      <trkpt lat="50.657155" lon="6.440974">
        <ele>377.454834</ele>
        <time>2008-07-22T21:53:14Z</time>
      </trkpt>
      <trkpt lat="50.657149" lon="6.441340">
        <ele>376.012817</ele>
        <time>2008-07-22T21:53:31Z</time>
      </trkpt>
      <trkpt lat="50.657173" lon="6.441812">
        <ele>376.493530</ele>
        <time>2008-07-22T21:53:53Z</time>
      </trkpt>
      <trkpt lat="50.657229" lon="6.442022">
        <ele>376.974243</ele>
        <time>2008-07-22T21:54:03Z</time>
      </trkpt>
      <trkpt lat="50.657297" lon="6.442158">
        <ele>377.454834</ele>
        <time>2008-07-22T21:54:12Z</time>
      </trkpt>
      <trkpt lat="50.657680" lon="6.442696">
        <ele>379.377441</ele>
        <time>2008-07-22T21:54:49Z</time>
      </trkpt>
      <trkpt lat="50.657886" lon="6.442964">
        <ele>379.377441</ele>
        <time>2008-07-22T21:55:09Z</time>
      </trkpt>
      <trkpt lat="50.658012" lon="6.443321">
        <ele>379.377441</ele>
        <time>2008-07-22T21:55:28Z</time>
      </trkpt>
      <trkpt lat="50.658361" lon="6.443959">
        <ele>379.377441</ele>
        <time>2008-07-22T21:56:07Z</time>
      </trkpt>
      <trkpt lat="50.658436" lon="6.444158">
        <ele>380.819458</ele>
        <time>2008-07-22T21:56:18Z</time>
      </trkpt>
      <trkpt lat="50.658656" lon="6.444641">
        <ele>380.819458</ele>
        <time>2008-07-22T21:56:46Z</time>
      </trkpt>
      <trkpt lat="50.659087" lon="6.445127">
        <ele>381.300049</ele>
        <time>2008-07-22T21:57:25Z</time>
      </trkpt>
      <trkpt lat="50.659387" lon="6.445499">
        <ele>381.780640</ele>
        <time>2008-07-22T21:57:53Z</time>
      </trkpt>
      <trkpt lat="50.659648" lon="6.445891">
        <ele>381.300049</ele>
        <time>2008-07-22T21:58:20Z</time>
      </trkpt>
      <trkpt lat="50.659877" lon="6.446319">
        <ele>381.300049</ele>
        <time>2008-07-22T21:58:46Z</time>
      </trkpt>
      <trkpt lat="50.659970" lon="6.446458">
        <ele>381.780640</ele>
        <time>2008-07-22T21:58:55Z</time>
      </trkpt>
      <trkpt lat="50.660179" lon="6.446887">
        <ele>381.780640</ele>
        <time>2008-07-22T21:59:21Z</time>
      </trkpt>
      <trkpt lat="50.660250" lon="6.447315">
        <ele>381.780640</ele>
        <time>2008-07-22T21:59:41Z</time>
      </trkpt>
      <trkpt lat="50.660312" lon="6.447502">
        <ele>381.780640</ele>
        <time>2008-07-22T21:59:51Z</time>
      </trkpt>
      <trkpt lat="50.660523" lon="6.447958">
        <ele>382.742065</ele>
        <time>2008-07-22T22:00:17Z</time>
      </trkpt>
      <trkpt lat="50.660591" lon="6.448086">
        <ele>382.261353</ele>
        <time>2008-07-22T22:00:25Z</time>
      </trkpt>
      <trkpt lat="50.660600" lon="6.448284">
        <ele>382.261353</ele>
        <time>2008-07-22T22:00:35Z</time>
      </trkpt>
      <trkpt lat="50.660856" lon="6.449024">
        <ele>382.261353</ele>
        <time>2008-07-22T22:01:14Z</time>
      </trkpt>
      <trkpt lat="50.660894" lon="6.449190">
        <ele>381.780640</ele>
        <time>2008-07-22T22:01:22Z</time>
      </trkpt>
      <trkpt lat="50.661198" lon="6.450009">
        <ele>381.300049</ele>
        <time>2008-07-22T22:02:06Z</time>
      </trkpt>
      <trkpt lat="50.661401" lon="6.450438">
        <ele>379.858032</ele>
        <time>2008-07-22T22:02:31Z</time>
      </trkpt>
      <trkpt lat="50.661641" lon="6.450839">
        <ele>378.416138</ele>
        <time>2008-07-22T22:02:57Z</time>
      </trkpt>
      <trkpt lat="50.661966" lon="6.451554">
        <ele>376.493530</ele>
        <time>2008-07-22T22:03:38Z</time>
      </trkpt>
      <trkpt lat="50.662132" lon="6.452029">
        <ele>375.532104</ele>
        <time>2008-07-22T22:04:04Z</time>
      </trkpt>
      <trkpt lat="50.662266" lon="6.452283">
        <ele>374.090088</ele>
        <time>2008-07-22T22:04:19Z</time>
      </trkpt>
      <trkpt lat="50.662692" lon="6.452844">
        <ele>371.206299</ele>
        <time>2008-07-22T22:05:00Z</time>
      </trkpt>
      <trkpt lat="50.662761" lon="6.453011">
        <ele>371.206299</ele>
        <time>2008-07-22T22:05:09Z</time>
      </trkpt>
      <trkpt lat="50.662960" lon="6.453757">
        <ele>366.399536</ele>
        <time>2008-07-22T22:05:47Z</time>
      </trkpt>
      <trkpt lat="50.663034" lon="6.454373">
        <ele>361.593140</ele>
        <time>2008-07-22T22:06:16Z</time>
      </trkpt>
      <trkpt lat="50.663044" lon="6.454540">
        <ele>360.151123</ele>
        <time>2008-07-22T22:06:24Z</time>
      </trkpt>
      <trkpt lat="50.663184" lon="6.454981">
        <ele>358.708984</ele>
        <time>2008-07-22T22:06:47Z</time>
      </trkpt>
      <trkpt lat="50.663211" lon="6.455167">
        <ele>356.786377</ele>
        <time>2008-07-22T22:06:56Z</time>
      </trkpt>
      <trkpt lat="50.663203" lon="6.455999">
        <ele>349.095825</ele>
        <time>2008-07-22T22:07:35Z</time>
      </trkpt>
      <trkpt lat="50.663299" lon="6.456683">
        <ele>341.885986</ele>
        <time>2008-07-22T22:08:08Z</time>
      </trkpt>
      <trkpt lat="50.663307" lon="6.457075">
        <ele>338.040771</ele>
        <time>2008-07-22T22:08:26Z</time>
      </trkpt>
      <trkpt lat="50.663378" lon="6.457604">
        <ele>331.311523</ele>
        <time>2008-07-22T22:08:51Z</time>
      </trkpt>
      <trkpt lat="50.663425" lon="6.457996">
        <ele>331.311523</ele>
        <time>2008-07-22T22:09:10Z</time>
      </trkpt>
      <trkpt lat="50.663461" lon="6.458148">
        <ele>328.908325</ele>
        <time>2008-07-22T22:09:17Z</time>
      </trkpt>
      <trkpt lat="50.663461" lon="6.458464">
        <ele>326.504883</ele>
        <time>2008-07-22T22:09:32Z</time>
      </trkpt>
      <trkpt lat="50.663491" lon="6.458802">
        <ele>323.620972</ele>
        <time>2008-07-22T22:09:48Z</time>
      </trkpt>
      <trkpt lat="50.663669" lon="6.459431">
        <ele>319.295044</ele>
        <time>2008-07-22T22:10:20Z</time>
      </trkpt>
      <trkpt lat="50.663812" lon="6.459687">
        <ele>315.930420</ele>
        <time>2008-07-22T22:10:36Z</time>
      </trkpt>
      <trkpt lat="50.663850" lon="6.459847">
        <ele>314.488403</ele>
        <time>2008-07-22T22:10:44Z</time>
      </trkpt>
      <trkpt lat="50.663924" lon="6.459963">
        <ele>313.046509</ele>
        <time>2008-07-22T22:10:52Z</time>
      </trkpt>
      <trkpt lat="50.664108" lon="6.460194">
        <ele>310.162476</ele>
        <time>2008-07-22T22:11:09Z</time>
      </trkpt>
      <trkpt lat="50.664105" lon="6.460478">
        <ele>309.681885</ele>
        <time>2008-07-22T22:11:23Z</time>
      </trkpt>
      <trkpt lat="50.664422" lon="6.460993">
        <ele>303.913940</ele>
        <time>2008-07-22T22:11:56Z</time>
      </trkpt>
      <trkpt lat="50.664432" lon="6.461196">
        <ele>301.991333</ele>
        <time>2008-07-22T22:12:06Z</time>
      </trkpt>
      <trkpt lat="50.664474" lon="6.461362">
        <ele>300.549316</ele>
        <time>2008-07-22T22:12:14Z</time>
      </trkpt>
      <trkpt lat="50.664472" lon="6.461621">
        <ele>299.107300</ele>
        <time>2008-07-22T22:12:26Z</time>
      </trkpt>
      <trkpt lat="50.664541" lon="6.461755">
        <ele>298.626709</ele>
        <time>2008-07-22T22:12:34Z</time>
      </trkpt>
      <trkpt lat="50.664861" lon="6.462240">
        <ele>293.339355</ele>
        <time>2008-07-22T22:13:07Z</time>
      </trkpt>
      <trkpt lat="50.664998" lon="6.462537">
        <ele>291.416748</ele>
        <time>2008-07-22T22:13:24Z</time>
      </trkpt>
      <trkpt lat="50.665215" lon="6.462753">
        <ele>288.532959</ele>
        <time>2008-07-22T22:13:43Z</time>
      </trkpt>
      <trkpt lat="50.665300" lon="6.462878">
        <ele>286.610229</ele>
        <time>2008-07-22T22:13:51Z</time>
      </trkpt>
      <trkpt lat="50.665380" lon="6.463034">
        <ele>285.168213</ele>
        <time>2008-07-22T22:14:01Z</time>
      </trkpt>
      <trkpt lat="50.665599" lon="6.463178">
        <ele>282.765015</ele>
        <time>2008-07-22T22:14:18Z</time>
      </trkpt>
      <trkpt lat="50.665763" lon="6.463378">
        <ele>280.361694</ele>
        <time>2008-07-22T22:14:33Z</time>
      </trkpt>
      <trkpt lat="50.665849" lon="6.463433">
        <ele>279.400269</ele>
        <time>2008-07-22T22:14:40Z</time>
      </trkpt>
      <trkpt lat="50.665890" lon="6.463628">
        <ele>278.438965</ele>
        <time>2008-07-22T22:14:50Z</time>
      </trkpt>
      <trkpt lat="50.666263" lon="6.464005">
        <ele>274.113037</ele>
        <time>2008-07-22T22:15:23Z</time>
      </trkpt>
      <trkpt lat="50.666409" lon="6.464241">
        <ele>270.748413</ele>
        <time>2008-07-22T22:15:38Z</time>
      </trkpt>
      <trkpt lat="50.666598" lon="6.464803">
        <ele>267.383911</ele>
        <time>2008-07-22T22:16:08Z</time>
      </trkpt>
      <trkpt lat="50.666646" lon="6.465203">
        <ele>264.019287</ele>
        <time>2008-07-22T22:16:27Z</time>
      </trkpt>
      <trkpt lat="50.666800" lon="6.465452">
        <ele>261.135254</ele>
        <time>2008-07-22T22:16:43Z</time>
      </trkpt>
      <trkpt lat="50.666879" lon="6.465824">
        <ele>259.693359</ele>
        <time>2008-07-22T22:17:01Z</time>
      </trkpt>
      <trkpt lat="50.666940" lon="6.466021">
        <ele>257.770752</ele>
        <time>2008-07-22T22:17:11Z</time>
      </trkpt>
      <trkpt lat="50.667245" lon="6.466813">
        <ele>251.041382</ele>
        <time>2008-07-22T22:17:55Z</time>
      </trkpt>
      <trkpt lat="50.667310" lon="6.466955">
        <ele>249.118774</ele>
        <time>2008-07-22T22:18:03Z</time>
      </trkpt>
      <trkpt lat="50.667379" lon="6.467052">
        <ele>247.676758</ele>
        <time>2008-07-22T22:18:10Z</time>
      </trkpt>
      <trkpt lat="50.667493" lon="6.467333">
        <ele>244.792847</ele>
        <time>2008-07-22T22:18:25Z</time>
      </trkpt>
      <trkpt lat="50.667522" lon="6.467668">
        <ele>239.986206</ele>
        <time>2008-07-22T22:18:41Z</time>
      </trkpt>
      <trkpt lat="50.667611" lon="6.467980">
        <ele>237.582886</ele>
        <time>2008-07-22T22:18:57Z</time>
      </trkpt>
      <trkpt lat="50.667682" lon="6.468123">
        <ele>236.140991</ele>
        <time>2008-07-22T22:19:06Z</time>
      </trkpt>
      <trkpt lat="50.667712" lon="6.468307">
        <ele>233.257080</ele>
        <time>2008-07-22T22:19:14Z</time>
      </trkpt>
      <trkpt lat="50.667885" lon="6.468746">
        <ele>230.373047</ele>
        <time>2008-07-22T22:19:39Z</time>
      </trkpt>
      <trkpt lat="50.667931" lon="6.468907">
        <ele>228.450439</ele>
        <time>2008-07-22T22:19:47Z</time>
      </trkpt>
      <trkpt lat="50.667934" lon="6.469337">
        <ele>225.085938</ele>
        <time>2008-07-22T22:20:07Z</time>
      </trkpt>
      <trkpt lat="50.667999" lon="6.469493">
        <ele>222.201782</ele>
        <time>2008-07-22T22:20:16Z</time>
      </trkpt>
      <trkpt lat="50.668069" lon="6.469649">
        <ele>220.759888</ele>
        <time>2008-07-22T22:20:25Z</time>
      </trkpt>
      <trkpt lat="50.668259" lon="6.469855">
        <ele>216.914673</ele>
        <time>2008-07-22T22:20:42Z</time>
      </trkpt>
      <trkpt lat="50.668386" lon="6.470170">
        <ele>214.991943</ele>
        <time>2008-07-22T22:20:59Z</time>
      </trkpt>
      <trkpt lat="50.668490" lon="6.470358">
        <ele>214.030640</ele>
        <time>2008-07-22T22:21:11Z</time>
      </trkpt>
      <trkpt lat="50.668531" lon="6.470538">
        <ele>213.069336</ele>
        <time>2008-07-22T22:21:20Z</time>
      </trkpt>
      <trkpt lat="50.669043" lon="6.471356">
        <ele>205.859497</ele>
        <time>2008-07-22T22:22:13Z</time>
      </trkpt>
      <trkpt lat="50.669150" lon="6.471676">
        <ele>202.975464</ele>
        <time>2008-07-22T22:22:30Z</time>
      </trkpt>
      <trkpt lat="50.669336" lon="6.472365">
        <ele>197.688232</ele>
        <time>2008-07-22T22:23:05Z</time>
      </trkpt>
      <trkpt lat="50.669401" lon="6.472480">
        <ele>196.726929</ele>
        <time>2008-07-22T22:23:12Z</time>
      </trkpt>
      <trkpt lat="50.669510" lon="6.472586">
        <ele>195.765625</ele>
        <time>2008-07-22T22:23:22Z</time>
      </trkpt>
      <trkpt lat="50.669581" lon="6.472753">
        <ele>194.804321</ele>
        <time>2008-07-22T22:23:31Z</time>
      </trkpt>
      <trkpt lat="50.669588" lon="6.472987">
        <ele>193.843018</ele>
        <time>2008-07-22T22:23:42Z</time>
      </trkpt>
      <trkpt lat="50.669707" lon="6.473454">
        <ele>191.439575</ele>
        <time>2008-07-22T22:24:06Z</time>
      </trkpt>
      <trkpt lat="50.669833" lon="6.474096">
        <ele>189.036377</ele>
        <time>2008-07-22T22:24:37Z</time>
      </trkpt>
      <trkpt lat="50.669948" lon="6.474403">
        <ele>187.594360</ele>
        <time>2008-07-22T22:24:54Z</time>
      </trkpt>
      <trkpt lat="50.670338" lon="6.475198">
        <ele>183.268433</ele>
        <time>2008-07-22T22:25:40Z</time>
      </trkpt>
      <trkpt lat="50.670471" lon="6.475400">
        <ele>184.710571</ele>
        <time>2008-07-22T22:25:54Z</time>
      </trkpt>
      <trkpt lat="50.670663" lon="6.475653">
        <ele>181.345825</ele>
        <time>2008-07-22T22:26:13Z</time>
      </trkpt>
      <trkpt lat="50.671086" lon="6.476241">
        <ele>182.787842</ele>
        <time>2008-07-22T22:26:54Z</time>
      </trkpt>
      <trkpt lat="50.671065" lon="6.476299">
        <ele>181.826416</ele>
        <time>2008-07-22T22:26:57Z</time>
      </trkpt>
      <trkpt lat="50.670953" lon="6.476244">
        <ele>180.865234</ele>
        <time>2008-07-22T22:27:06Z</time>
      </trkpt>
      <trkpt lat="50.670729" lon="6.476112">
        <ele>180.865234</ele>
        <time>2008-07-22T22:27:23Z</time>
      </trkpt>
      <trkpt lat="50.670539" lon="6.475959">
        <ele>180.865234</ele>
        <time>2008-07-22T22:27:39Z</time>
      </trkpt>
      <trkpt lat="50.670277" lon="6.475686">
        <ele>180.384521</ele>
        <time>2008-07-22T22:28:02Z</time>
      </trkpt>
      <trkpt lat="50.669960" lon="6.475218">
        <ele>180.865234</ele>
        <time>2008-07-22T22:28:34Z</time>
      </trkpt>
      <trkpt lat="50.669595" lon="6.474402">
        <ele>181.345825</ele>
        <time>2008-07-22T22:29:21Z</time>
      </trkpt>
      <trkpt lat="50.669163" lon="6.473283">
        <ele>181.826416</ele>
        <time>2008-07-22T22:30:22Z</time>
      </trkpt>
      <trkpt lat="50.668846" lon="6.472596">
        <ele>182.307129</ele>
        <time>2008-07-22T22:31:02Z</time>
      </trkpt>
      <trkpt lat="50.668755" lon="6.472295">
        <ele>183.268433</ele>
        <time>2008-07-22T22:31:17Z</time>
      </trkpt>
      <trkpt lat="50.668512" lon="6.471708">
        <ele>183.268433</ele>
        <time>2008-07-22T22:31:50Z</time>
      </trkpt>
      <trkpt lat="50.668105" lon="6.470835">
        <ele>185.191162</ele>
        <time>2008-07-22T22:32:41Z</time>
      </trkpt>
      <trkpt lat="50.667904" lon="6.470245">
        <ele>186.152466</ele>
        <time>2008-07-22T22:33:12Z</time>
      </trkpt>
      <trkpt lat="50.667749" lon="6.469985">
        <ele>186.633179</ele>
        <time>2008-07-22T22:33:29Z</time>
      </trkpt>
      <trkpt lat="50.667561" lon="6.469598">
        <ele>187.113770</ele>
        <time>2008-07-22T22:33:51Z</time>
      </trkpt>
      <trkpt lat="50.667076" lon="6.468805">
        <ele>187.594360</ele>
        <time>2008-07-22T22:34:43Z</time>
      </trkpt>
      <trkpt lat="50.666996" lon="6.468465">
        <ele>189.997681</ele>
        <time>2008-07-22T22:35:00Z</time>
      </trkpt>
      <trkpt lat="50.666926" lon="6.468318">
        <ele>191.439575</ele>
        <time>2008-07-22T22:35:08Z</time>
      </trkpt>
      <trkpt lat="50.666831" lon="6.467827">
        <ele>195.765625</ele>
        <time>2008-07-22T22:35:32Z</time>
      </trkpt>
      <trkpt lat="50.666791" lon="6.467436">
        <ele>198.649536</ele>
        <time>2008-07-22T22:35:51Z</time>
      </trkpt>
      <trkpt lat="50.666606" lon="6.467097">
        <ele>202.494873</ele>
        <time>2008-07-22T22:36:12Z</time>
      </trkpt>
      <trkpt lat="50.666570" lon="6.466944">
        <ele>203.936890</ele>
        <time>2008-07-22T22:36:19Z</time>
      </trkpt>
      <trkpt lat="50.666487" lon="6.466813">
        <ele>205.378784</ele>
        <time>2008-07-22T22:36:28Z</time>
      </trkpt>
      <trkpt lat="50.666455" lon="6.466665">
        <ele>206.340088</ele>
        <time>2008-07-22T22:36:35Z</time>
      </trkpt>
      <trkpt lat="50.666346" lon="6.466569">
        <ele>206.820679</ele>
        <time>2008-07-22T22:36:44Z</time>
      </trkpt>
      <trkpt lat="50.666196" lon="6.466533">
        <ele>208.262817</ele>
        <time>2008-07-22T22:36:56Z</time>
      </trkpt>
      <trkpt lat="50.665988" lon="6.466128">
        <ele>211.146729</ele>
        <time>2008-07-22T22:37:20Z</time>
      </trkpt>
      <trkpt lat="50.665931" lon="6.465929">
        <ele>212.108032</ele>
        <time>2008-07-22T22:37:30Z</time>
      </trkpt>
      <trkpt lat="50.665923" lon="6.465750">
        <ele>213.069336</ele>
        <time>2008-07-22T22:37:39Z</time>
      </trkpt>
      <trkpt lat="50.665868" lon="6.465566">
        <ele>214.511230</ele>
        <time>2008-07-22T22:37:48Z</time>
      </trkpt>
      <trkpt lat="50.665735" lon="6.465427">
        <ele>215.953247</ele>
        <time>2008-07-22T22:38:00Z</time>
      </trkpt>
      <trkpt lat="50.665641" lon="6.465235">
        <ele>216.433960</ele>
        <time>2008-07-22T22:38:11Z</time>
      </trkpt>
      <trkpt lat="50.665441" lon="6.464956">
        <ele>217.875977</ele>
        <time>2008-07-22T22:38:31Z</time>
      </trkpt>
      <trkpt lat="50.665235" lon="6.464897">
        <ele>218.356567</ele>
        <time>2008-07-22T22:38:46Z</time>
      </trkpt>
      <trkpt lat="50.665001" lon="6.464755">
        <ele>220.279175</ele>
        <time>2008-07-22T22:39:05Z</time>
      </trkpt>
      <trkpt lat="50.664735" lon="6.464650">
        <ele>222.201782</ele>
        <time>2008-07-22T22:39:25Z</time>
      </trkpt>
      <trkpt lat="50.664530" lon="6.464535">
        <ele>222.682495</ele>
        <time>2008-07-22T22:39:41Z</time>
      </trkpt>
      <trkpt lat="50.664454" lon="6.464418">
        <ele>222.682495</ele>
        <time>2008-07-22T22:39:49Z</time>
      </trkpt>
      <trkpt lat="50.664201" lon="6.464262">
        <ele>223.163208</ele>
        <time>2008-07-22T22:40:09Z</time>
      </trkpt>
      <trkpt lat="50.663773" lon="6.463827">
        <ele>224.605225</ele>
        <time>2008-07-22T22:40:46Z</time>
      </trkpt>
      <trkpt lat="50.663463" lon="6.463561">
        <ele>225.085938</ele>
        <time>2008-07-22T22:41:12Z</time>
      </trkpt>
      <trkpt lat="50.663339" lon="6.463284">
        <ele>226.047119</ele>
        <time>2008-07-22T22:41:28Z</time>
      </trkpt>
      <trkpt lat="50.663246" lon="6.463167">
        <ele>226.527832</ele>
        <time>2008-07-22T22:41:37Z</time>
      </trkpt>
      <trkpt lat="50.663032" lon="6.462557">
        <ele>228.931152</ele>
        <time>2008-07-22T22:42:09Z</time>
      </trkpt>
      <trkpt lat="50.662758" lon="6.462041">
        <ele>229.411743</ele>
        <time>2008-07-22T22:42:41Z</time>
      </trkpt>
      <trkpt lat="50.662717" lon="6.461892">
        <ele>229.892334</ele>
        <time>2008-07-22T22:42:48Z</time>
      </trkpt>
      <trkpt lat="50.662617" lon="6.461780">
        <ele>229.411743</ele>
        <time>2008-07-22T22:42:57Z</time>
      </trkpt>
      <trkpt lat="50.662521" lon="6.461795">
        <ele>229.411743</ele>
        <time>2008-07-22T22:43:05Z</time>
      </trkpt>
      <trkpt lat="50.662433" lon="6.462039">
        <ele>228.931152</ele>
        <time>2008-07-22T22:43:18Z</time>
      </trkpt>
      <trkpt lat="50.662390" lon="6.462424">
        <ele>226.527832</ele>
        <time>2008-07-22T22:43:36Z</time>
      </trkpt>
      <trkpt lat="50.662403" lon="6.462615">
        <ele>224.605225</ele>
        <time>2008-07-22T22:43:45Z</time>
      </trkpt>
      <trkpt lat="50.662505" lon="6.462951">
        <ele>219.317993</ele>
        <time>2008-07-22T22:44:02Z</time>
      </trkpt>
      <trkpt lat="50.662564" lon="6.463283">
        <ele>214.991943</ele>
        <time>2008-07-22T22:44:18Z</time>
      </trkpt>
      <trkpt lat="50.662563" lon="6.463476">
        <ele>213.069336</ele>
        <time>2008-07-22T22:44:27Z</time>
      </trkpt>
      <trkpt lat="50.662683" lon="6.463641">
        <ele>209.224121</ele>
        <time>2008-07-22T22:44:39Z</time>
      </trkpt>
      <trkpt lat="50.662715" lon="6.463824">
        <ele>208.743408</ele>
        <time>2008-07-22T22:44:48Z</time>
      </trkpt>
      <trkpt lat="50.662892" lon="6.464265">
        <ele>200.572266</ele>
        <time>2008-07-22T22:45:12Z</time>
      </trkpt>
      <trkpt lat="50.662979" lon="6.464514">
        <ele>194.804321</ele>
        <time>2008-07-22T22:45:26Z</time>
      </trkpt>
      <trkpt lat="50.662978" lon="6.464671">
        <ele>191.920288</ele>
        <time>2008-07-22T22:45:33Z</time>
      </trkpt>
      <trkpt lat="50.663005" lon="6.464811">
        <ele>189.036377</ele>
        <time>2008-07-22T22:45:40Z</time>
      </trkpt>
      <trkpt lat="50.662956" lon="6.464942">
        <ele>186.633179</ele>
        <time>2008-07-22T22:45:47Z</time>
      </trkpt>
      <trkpt lat="50.662865" lon="6.464992">
        <ele>186.152466</ele>
        <time>2008-07-22T22:45:54Z</time>
      </trkpt>
      <trkpt lat="50.662593" lon="6.465053">
        <ele>186.633179</ele>
        <time>2008-07-22T22:46:14Z</time>
      </trkpt>
      <trkpt lat="50.662520" lon="6.465155">
        <ele>187.113770</ele>
        <time>2008-07-22T22:46:21Z</time>
      </trkpt>
      <trkpt lat="50.662400" lon="6.465208">
        <ele>187.113770</ele>
        <time>2008-07-22T22:46:31Z</time>
      </trkpt>
      <trkpt lat="50.662275" lon="6.465234">
        <ele>187.113770</ele>
        <time>2008-07-22T22:46:40Z</time>
      </trkpt>
      <trkpt lat="50.661678" lon="6.465243">
        <ele>188.075073</ele>
        <time>2008-07-22T22:47:24Z</time>
      </trkpt>
      <trkpt lat="50.661620" lon="6.465288">
        <ele>187.594360</ele>
        <time>2008-07-22T22:47:29Z</time>
      </trkpt>
      <trkpt lat="50.661329" lon="6.465831">
        <ele>186.152466</ele>
        <time>2008-07-22T22:48:02Z</time>
      </trkpt>
      <trkpt lat="50.660970" lon="6.466395">
        <ele>187.113770</ele>
        <time>2008-07-22T22:48:39Z</time>
      </trkpt>
      <trkpt lat="50.660812" lon="6.466686">
        <ele>186.633179</ele>
        <time>2008-07-22T22:48:57Z</time>
      </trkpt>
      <trkpt lat="50.660693" lon="6.466984">
        <ele>186.633179</ele>
        <time>2008-07-22T22:49:14Z</time>
      </trkpt>
      <trkpt lat="50.660519" lon="6.467257">
        <ele>187.113770</ele>
        <time>2008-07-22T22:49:32Z</time>
      </trkpt>
      <trkpt lat="50.660299" lon="6.468168">
        <ele>187.594360</ele>
        <time>2008-07-22T22:50:17Z</time>
      </trkpt>
      <trkpt lat="50.660218" lon="6.468555">
        <ele>186.152466</ele>
        <time>2008-07-22T22:50:36Z</time>
      </trkpt>
      <trkpt lat="50.660180" lon="6.468951">
        <ele>187.594360</ele>
        <time>2008-07-22T22:50:55Z</time>
      </trkpt>
      <trkpt lat="50.660168" lon="6.469562">
        <ele>187.594360</ele>
        <time>2008-07-22T22:51:23Z</time>
      </trkpt>
      <trkpt lat="50.660189" lon="6.469963">
        <ele>187.113770</ele>
        <time>2008-07-22T22:51:42Z</time>
      </trkpt>
      <trkpt lat="50.660309" lon="6.470764">
        <ele>187.113770</ele>
        <time>2008-07-22T22:52:21Z</time>
      </trkpt>
      <trkpt lat="50.660351" lon="6.471175">
        <ele>187.113770</ele>
        <time>2008-07-22T22:52:40Z</time>
      </trkpt>
      <trkpt lat="50.660338" lon="6.471378">
        <ele>186.633179</ele>
        <time>2008-07-22T22:52:50Z</time>
      </trkpt>
      <trkpt lat="50.660288" lon="6.471570">
        <ele>187.113770</ele>
        <time>2008-07-22T22:52:59Z</time>
      </trkpt>
      <trkpt lat="50.660156" lon="6.471907">
        <ele>187.113770</ele>
        <time>2008-07-22T22:53:18Z</time>
      </trkpt>
      <trkpt lat="50.660104" lon="6.472087">
        <ele>187.594360</ele>
        <time>2008-07-22T22:53:27Z</time>
      </trkpt>
      <trkpt lat="50.660082" lon="6.472287">
        <ele>188.075073</ele>
        <time>2008-07-22T22:53:37Z</time>
      </trkpt>
      <trkpt lat="50.660080" lon="6.473828">
        <ele>190.478394</ele>
        <time>2008-07-22T22:54:49Z</time>
      </trkpt>
      <trkpt lat="50.660111" lon="6.474296">
        <ele>189.997681</ele>
        <time>2008-07-22T22:55:11Z</time>
      </trkpt>
      <trkpt lat="50.660087" lon="6.474441">
        <ele>190.478394</ele>
        <time>2008-07-22T22:55:18Z</time>
      </trkpt>
      <trkpt lat="50.660032" lon="6.474582">
        <ele>190.478394</ele>
        <time>2008-07-22T22:55:25Z</time>
      </trkpt>
      <trkpt lat="50.659622" lon="6.475513">
        <ele>192.881714</ele>
        <time>2008-07-22T22:56:18Z</time>
      </trkpt>
      <trkpt lat="50.659673" lon="6.475668">
        <ele>192.881714</ele>
        <time>2008-07-22T22:56:26Z</time>
      </trkpt>
      <trkpt lat="50.659770" lon="6.475758">
        <ele>192.401123</ele>
        <time>2008-07-22T22:56:35Z</time>
      </trkpt>
      <trkpt lat="50.660129" lon="6.476013">
        <ele>190.958984</ele>
        <time>2008-07-22T22:57:04Z</time>
      </trkpt>
      <trkpt lat="50.660577" lon="6.476211">
        <ele>189.516968</ele>
        <time>2008-07-22T22:57:38Z</time>
      </trkpt>
      <trkpt lat="50.660663" lon="6.476278">
        <ele>189.036377</ele>
        <time>2008-07-22T22:57:45Z</time>
      </trkpt>
      <trkpt lat="50.660694" lon="6.476408">
        <ele>189.036377</ele>
        <time>2008-07-22T22:57:51Z</time>
      </trkpt>
      <trkpt lat="50.660657" lon="6.476698">
        <ele>188.555786</ele>
        <time>2008-07-22T22:58:05Z</time>
      </trkpt>
      <trkpt lat="50.660415" lon="6.477913">
        <ele>188.555786</ele>
        <time>2008-07-22T22:59:05Z</time>
      </trkpt>
      <trkpt lat="50.660388" lon="6.478116">
        <ele>187.594360</ele>
        <time>2008-07-22T22:59:14Z</time>
      </trkpt>
      <trkpt lat="50.660253" lon="6.478604">
        <ele>189.036377</ele>
        <time>2008-07-22T22:59:39Z</time>
      </trkpt>
      <trkpt lat="50.660212" lon="6.478774">
        <ele>190.958984</ele>
        <time>2008-07-22T22:59:48Z</time>
      </trkpt>
      <trkpt lat="50.660189" lon="6.479217">
        <ele>193.843018</ele>
        <time>2008-07-22T23:00:09Z</time>
      </trkpt>
      <trkpt lat="50.660130" lon="6.479556">
        <ele>193.843018</ele>
        <time>2008-07-22T23:00:25Z</time>
      </trkpt>
      <trkpt lat="50.660157" lon="6.480048">
        <ele>192.881714</ele>
        <time>2008-07-22T23:00:48Z</time>
      </trkpt>
      <trkpt lat="50.660137" lon="6.480190">
        <ele>194.804321</ele>
        <time>2008-07-22T23:00:55Z</time>
      </trkpt>
      <trkpt lat="50.660065" lon="6.480299">
        <ele>198.649536</ele>
        <time>2008-07-22T23:01:02Z</time>
      </trkpt>
      <trkpt lat="50.659986" lon="6.480190">
        <ele>198.168945</ele>
        <time>2008-07-22T23:01:10Z</time>
      </trkpt>
      <trkpt lat="50.659608" lon="6.479863">
        <ele>197.688232</ele>
        <time>2008-07-22T23:01:42Z</time>
      </trkpt>
      <trkpt lat="50.659329" lon="6.479486">
        <ele>198.649536</ele>
        <time>2008-07-22T23:02:09Z</time>
      </trkpt>
      <trkpt lat="50.658759" lon="6.478877">
        <ele>199.610840</ele>
        <time>2008-07-22T23:02:59Z</time>
      </trkpt>
      <trkpt lat="50.658263" lon="6.478225">
        <ele>200.572266</ele>
        <time>2008-07-22T23:03:47Z</time>
      </trkpt>
      <trkpt lat="50.658042" lon="6.477856">
        <ele>200.572266</ele>
        <time>2008-07-22T23:04:11Z</time>
      </trkpt>
      <trkpt lat="50.657481" lon="6.477080">
        <ele>202.975464</ele>
        <time>2008-07-22T23:05:06Z</time>
      </trkpt>
      <trkpt lat="50.657233" lon="6.476599">
        <ele>204.417480</ele>
        <time>2008-07-22T23:05:35Z</time>
      </trkpt>
      <trkpt lat="50.657056" lon="6.476294">
        <ele>204.417480</ele>
        <time>2008-07-22T23:05:54Z</time>
      </trkpt>
      <trkpt lat="50.656589" lon="6.475647">
        <ele>205.859497</ele>
        <time>2008-07-22T23:06:40Z</time>
      </trkpt>
      <trkpt lat="50.656400" lon="6.475316">
        <ele>207.301392</ele>
        <time>2008-07-22T23:07:01Z</time>
      </trkpt>
      <trkpt lat="50.656096" lon="6.474645">
        <ele>211.146729</ele>
        <time>2008-07-22T23:07:39Z</time>
      </trkpt>
      <trkpt lat="50.655958" lon="6.474218">
        <ele>216.914673</ele>
        <time>2008-07-22T23:08:01Z</time>
      </trkpt>
      <trkpt lat="50.655925" lon="6.474014">
        <ele>219.798584</ele>
        <time>2008-07-22T23:08:11Z</time>
      </trkpt>
      <trkpt lat="50.656009" lon="6.473155">
        <ele>226.047119</ele>
        <time>2008-07-22T23:08:52Z</time>
      </trkpt>
      <trkpt lat="50.655923" lon="6.472627">
        <ele>229.892334</ele>
        <time>2008-07-22T23:09:17Z</time>
      </trkpt>
      <trkpt lat="50.655877" lon="6.471844">
        <ele>234.699097</ele>
        <time>2008-07-22T23:09:54Z</time>
      </trkpt>
      <trkpt lat="50.655806" lon="6.471341">
        <ele>237.102295</ele>
        <time>2008-07-22T23:10:18Z</time>
      </trkpt>
      <trkpt lat="50.655622" lon="6.470821">
        <ele>239.505493</ele>
        <time>2008-07-22T23:10:46Z</time>
      </trkpt>
      <trkpt lat="50.655185" lon="6.469770">
        <ele>242.389648</ele>
        <time>2008-07-22T23:11:45Z</time>
      </trkpt>
      <trkpt lat="50.654814" lon="6.468998">
        <ele>245.273438</ele>
        <time>2008-07-22T23:12:30Z</time>
      </trkpt>
      <trkpt lat="50.654790" lon="6.468564">
        <ele>245.273438</ele>
        <time>2008-07-22T23:12:50Z</time>
      </trkpt>
      <trkpt lat="50.654832" lon="6.468124">
        <ele>246.715454</ele>
        <time>2008-07-22T23:13:11Z</time>
      </trkpt>
      <trkpt lat="50.654915" lon="6.467835">
        <ele>247.196045</ele>
        <time>2008-07-22T23:13:26Z</time>
      </trkpt>
      <trkpt lat="50.654992" lon="6.467712">
        <ele>247.196045</ele>
        <time>2008-07-22T23:13:34Z</time>
      </trkpt>
      <trkpt lat="50.655086" lon="6.467244">
        <ele>249.118774</ele>
        <time>2008-07-22T23:13:57Z</time>
      </trkpt>
      <trkpt lat="50.655169" lon="6.467064">
        <ele>250.560791</ele>
        <time>2008-07-22T23:14:07Z</time>
      </trkpt>
      <trkpt lat="50.655261" lon="6.466581">
        <ele>252.002808</ele>
        <time>2008-07-22T23:14:31Z</time>
      </trkpt>
      <trkpt lat="50.655353" lon="6.466266">
        <ele>253.925415</ele>
        <time>2008-07-22T23:14:47Z</time>
      </trkpt>
      <trkpt lat="50.655560" lon="6.465823">
        <ele>255.848022</ele>
        <time>2008-07-22T23:15:13Z</time>
      </trkpt>
      <trkpt lat="50.655651" lon="6.465717">
        <ele>256.809326</ele>
        <time>2008-07-22T23:15:21Z</time>
      </trkpt>
      <trkpt lat="50.655780" lon="6.465456">
        <ele>258.731934</ele>
        <time>2008-07-22T23:15:37Z</time>
      </trkpt>
      <trkpt lat="50.655869" lon="6.465321">
        <ele>259.212646</ele>
        <time>2008-07-22T23:15:46Z</time>
      </trkpt>
      <trkpt lat="50.656021" lon="6.464667">
        <ele>262.096558</ele>
        <time>2008-07-22T23:16:18Z</time>
      </trkpt>
      <trkpt lat="50.656154" lon="6.464320">
        <ele>263.538574</ele>
        <time>2008-07-22T23:16:37Z</time>
      </trkpt>
      <trkpt lat="50.656167" lon="6.464091">
        <ele>264.019287</ele>
        <time>2008-07-22T23:16:48Z</time>
      </trkpt>
      <trkpt lat="50.656225" lon="6.463741">
        <ele>265.941895</ele>
        <time>2008-07-22T23:17:05Z</time>
      </trkpt>
      <trkpt lat="50.656220" lon="6.463515">
        <ele>267.383911</ele>
        <time>2008-07-22T23:17:15Z</time>
      </trkpt>
      <trkpt lat="50.656020" lon="6.462750">
        <ele>271.709717</ele>
        <time>2008-07-22T23:17:54Z</time>
      </trkpt>
      <trkpt lat="50.655814" lon="6.462114">
        <ele>273.151855</ele>
        <time>2008-07-22T23:18:27Z</time>
      </trkpt>
      <trkpt lat="50.655680" lon="6.461742">
        <ele>273.632446</ele>
        <time>2008-07-22T23:18:47Z</time>
      </trkpt>
      <trkpt lat="50.655429" lon="6.461198">
        <ele>275.074463</ele>
        <time>2008-07-22T23:19:19Z</time>
      </trkpt>
      <trkpt lat="50.655205" lon="6.460492">
        <ele>280.842407</ele>
        <time>2008-07-22T23:19:56Z</time>
      </trkpt>
      <trkpt lat="50.655059" lon="6.459637">
        <ele>285.648804</ele>
        <time>2008-07-22T23:20:37Z</time>
      </trkpt>
      <trkpt lat="50.655024" lon="6.459152">
        <ele>287.090820</ele>
        <time>2008-07-22T23:21:00Z</time>
      </trkpt>
      <trkpt lat="50.654939" lon="6.458293">
        <ele>291.897461</ele>
        <time>2008-07-22T23:21:40Z</time>
      </trkpt>
      <trkpt lat="50.654932" lon="6.457658">
        <ele>294.300781</ele>
        <time>2008-07-22T23:22:10Z</time>
      </trkpt>
      <trkpt lat="50.655074" lon="6.456804">
        <ele>301.510620</ele>
        <time>2008-07-22T23:22:51Z</time>
      </trkpt>
      <trkpt lat="50.655200" lon="6.456048">
        <ele>306.317261</ele>
        <time>2008-07-22T23:23:28Z</time>
      </trkpt>
      <trkpt lat="50.655332" lon="6.455597">
        <ele>309.201172</ele>
        <time>2008-07-22T23:23:51Z</time>
      </trkpt>
      <trkpt lat="50.655360" lon="6.455270">
        <ele>310.643066</ele>
        <time>2008-07-22T23:24:06Z</time>
      </trkpt>
      <trkpt lat="50.655349" lon="6.454313">
        <ele>316.891724</ele>
        <time>2008-07-22T23:24:51Z</time>
      </trkpt>
      <trkpt lat="50.655430" lon="6.454042">
        <ele>319.295044</ele>
        <time>2008-07-22T23:25:05Z</time>
      </trkpt>
      <trkpt lat="50.655580" lon="6.453811">
        <ele>320.737061</ele>
        <time>2008-07-22T23:25:20Z</time>
      </trkpt>
      <trkpt lat="50.655812" lon="6.453549">
        <ele>325.062988</ele>
        <time>2008-07-22T23:25:41Z</time>
      </trkpt>
      <trkpt lat="50.655892" lon="6.453407">
        <ele>326.504883</ele>
        <time>2008-07-22T23:25:50Z</time>
      </trkpt>
      <trkpt lat="50.656112" lon="6.452560">
        <ele>335.637329</ele>
        <time>2008-07-22T23:26:33Z</time>
      </trkpt>
      <trkpt lat="50.656155" lon="6.451856">
        <ele>343.808594</ele>
        <time>2008-07-22T23:27:06Z</time>
      </trkpt>
      <trkpt lat="50.656131" lon="6.451427">
        <ele>349.095825</ele>
        <time>2008-07-22T23:27:26Z</time>
      </trkpt>
      <trkpt lat="50.656194" lon="6.451023">
        <ele>353.902588</ele>
        <time>2008-07-22T23:27:46Z</time>
      </trkpt>
      <trkpt lat="50.656326" lon="6.450639">
        <ele>359.670410</ele>
        <time>2008-07-22T23:28:06Z</time>
      </trkpt>
      <trkpt lat="50.656549" lon="6.450300">
        <ele>363.996338</ele>
        <time>2008-07-22T23:28:29Z</time>
      </trkpt>
      <trkpt lat="50.656629" lon="6.450142">
        <ele>365.438354</ele>
        <time>2008-07-22T23:28:38Z</time>
      </trkpt>
      <trkpt lat="50.656752" lon="6.449984">
        <ele>365.918945</ele>
        <time>2008-07-22T23:28:50Z</time>
      </trkpt>
      <trkpt lat="50.656880" lon="6.449025">
        <ele>370.244873</ele>
        <time>2008-07-22T23:29:36Z</time>
      </trkpt>
      <trkpt lat="50.656949" lon="6.448615">
        <ele>373.609497</ele>
        <time>2008-07-22T23:29:56Z</time>
      </trkpt>
      <trkpt lat="50.657062" lon="6.448244">
        <ele>376.012817</ele>
        <time>2008-07-22T23:30:15Z</time>
      </trkpt>
      <trkpt lat="50.657147" lon="6.447689">
        <ele>379.858032</ele>
        <time>2008-07-22T23:30:42Z</time>
      </trkpt>
      <trkpt lat="50.657381" lon="6.447012">
        <ele>384.184082</ele>
        <time>2008-07-22T23:31:18Z</time>
      </trkpt>
      <trkpt lat="50.657478" lon="6.446587">
        <ele>385.145386</ele>
        <time>2008-07-22T23:31:39Z</time>
      </trkpt>
      <trkpt lat="50.657438" lon="6.446071">
        <ele>388.510010</ele>
        <time>2008-07-22T23:32:03Z</time>
      </trkpt>
      <trkpt lat="50.657129" lon="6.445142">
        <ele>389.951904</ele>
        <time>2008-07-22T23:32:52Z</time>
      </trkpt>
      <trkpt lat="50.657048" lon="6.444735">
        <ele>390.432617</ele>
        <time>2008-07-22T23:33:12Z</time>
      </trkpt>
      <trkpt lat="50.656699" lon="6.443568">
        <ele>391.393799</ele>
        <time>2008-07-22T23:34:12Z</time>
      </trkpt>
      <trkpt lat="50.656520" lon="6.442741">
        <ele>391.874512</ele>
        <time>2008-07-22T23:34:53Z</time>
      </trkpt>
      <trkpt lat="50.656420" lon="6.442377">
        <ele>391.393799</ele>
        <time>2008-07-22T23:35:11Z</time>
      </trkpt>
      <trkpt lat="50.656289" lon="6.442082">
        <ele>390.432617</ele>
        <time>2008-07-22T23:35:28Z</time>
      </trkpt>
      <trkpt lat="50.656059" lon="6.441736">
        <ele>392.355347</ele>
        <time>2008-07-22T23:35:52Z</time>
      </trkpt>
      <trkpt lat="50.656002" lon="6.441616">
        <ele>393.316528</ele>
        <time>2008-07-22T23:35:59Z</time>
      </trkpt>
      <trkpt lat="50.655902" lon="6.441344">
        <ele>393.797241</ele>
        <time>2008-07-22T23:36:13Z</time>
      </trkpt>
      <trkpt lat="50.655887" lon="6.441196">
        <ele>393.797241</ele>
        <time>2008-07-22T23:36:20Z</time>
      </trkpt>
      <trkpt lat="50.655877" lon="6.440532">
        <ele>394.277954</ele>
        <time>2008-07-22T23:36:51Z</time>
      </trkpt>
      <trkpt lat="50.655890" lon="6.439837">
        <ele>395.239136</ele>
        <time>2008-07-22T23:37:24Z</time>
      </trkpt>
      <trkpt lat="50.655877" lon="6.439660">
        <ele>395.719849</ele>
        <time>2008-07-22T23:37:32Z</time>
      </trkpt>
      <trkpt lat="50.655926" lon="6.439186">
        <ele>396.200562</ele>
        <time>2008-07-22T23:37:55Z</time>
      </trkpt>
      <trkpt lat="50.655940" lon="6.438537">
        <ele>396.681152</ele>
        <time>2008-07-22T23:38:25Z</time>
      </trkpt>
      <trkpt lat="50.655987" lon="6.437676">
        <ele>396.200562</ele>
        <time>2008-07-22T23:39:05Z</time>
      </trkpt>
      <trkpt lat="50.655993" lon="6.437133">
        <ele>396.200562</ele>
        <time>2008-07-22T23:39:31Z</time>
      </trkpt>
      <trkpt lat="50.655961" lon="6.436936">
        <ele>396.200562</ele>
        <time>2008-07-22T23:39:40Z</time>
      </trkpt>
      <trkpt lat="50.655923" lon="6.436001">
        <ele>398.603760</ele>
        <time>2008-07-22T23:40:24Z</time>
      </trkpt>
      <trkpt lat="50.655883" lon="6.435208">
        <ele>399.084351</ele>
        <time>2008-07-22T23:41:01Z</time>
      </trkpt>
      <trkpt lat="50.655906" lon="6.434461">
        <ele>399.084351</ele>
        <time>2008-07-22T23:41:36Z</time>
      </trkpt>
      <trkpt lat="50.655967" lon="6.434117">
        <ele>399.565063</ele>
        <time>2008-07-22T23:41:53Z</time>
      </trkpt>
      <trkpt lat="50.656033" lon="6.433966">
        <ele>400.045898</ele>
        <time>2008-07-22T23:42:01Z</time>
      </trkpt>
      <trkpt lat="50.656219" lon="6.433687">
        <ele>400.045898</ele>
        <time>2008-07-22T23:42:20Z</time>
      </trkpt>
      <trkpt lat="50.656331" lon="6.433562">
        <ele>400.045898</ele>
        <time>2008-07-22T23:42:30Z</time>
      </trkpt>
      <trkpt lat="50.657039" lon="6.432326">
        <ele>402.449097</ele>
        <time>2008-07-22T23:43:48Z</time>
      </trkpt>
      <trkpt lat="50.657188" lon="6.432055">
        <ele>404.852295</ele>
        <time>2008-07-22T23:44:05Z</time>
      </trkpt>
    </trkseg>
  </trk>

</gpx>
